sensor_id;sensor_type;location;lat;lon;timestamp;P1;durP1;ratioP1;P2;durP2;ratioP2
11823;SDS011;5969;50.780;7.726;2024-03-06T00:01:03;26.60;;;22.52;;
11823;SDS011;5969;50.780;7.726;2024-03-06T00:03:31;34.55;;;22.65;;
11823;SDS011;5969;50.780;7.726;2024-03-06T00:06:00;30.10;;;22.65;;
11823;SDS011;5969;50.780;7.726;2024-03-06T00:08:27;21.60;;;18.55;;
11823;SDS011;5969;50.780;7.726;2024-03-06T00:10:54;22.17;;;19.50;;
11823;SDS011;5969;50.780;7.726;2024-03-06T00:13:22;24.73;;;20.35;;
11823;SDS011;5969;50.780;7.726;2024-03-06T00:15:49;20.98;;;18.33;;
11823;SDS011;5969;50.780;7.726;2024-03-06T00:18:16;28.05;;;20.45;;
11823;SDS011;5969;50.780;7.726;2024-03-06T00:20:43;21.45;;;18.60;;
11823;SDS011;5969;50.780;7.726;2024-03-06T00:23:10;21.55;;;18.58;;
11823;SDS011;5969;50.780;7.726;2024-03-06T00:25:37;21.17;;;18.88;;
11823;SDS011;5969;50.780;7.726;2024-03-06T00:28:05;24.38;;;18.52;;
11823;SDS011;5969;50.780;7.726;2024-03-06T00:30:33;27.77;;;18.15;;
11823;SDS011;5969;50.780;7.726;2024-03-06T00:33:00;36.30;;;19.88;;
11823;SDS011;5969;50.780;7.726;2024-03-06T00:35:27;30.33;;;18.25;;
11823;SDS011;5969;50.780;7.726;2024-03-06T00:37:54;22.08;;;17.45;;
11823;SDS011;5969;50.780;7.726;2024-03-06T00:40:22;23.50;;;19.80;;
11823;SDS011;5969;50.780;7.726;2024-03-06T00:42:49;22.80;;;18.48;;
11823;SDS011;5969;50.780;7.726;2024-03-06T00:45:16;21.00;;;18.48;;
11823;SDS011;5969;50.780;7.726;2024-03-06T00:47:45;25.33;;;18.75;;
11823;SDS011;5969;50.780;7.726;2024-03-06T00:50:12;22.00;;;18.50;;
11823;SDS011;5969;50.780;7.726;2024-03-06T00:52:39;24.05;;;19.58;;
11823;SDS011;5969;50.780;7.726;2024-03-06T00:55:07;22.88;;;20.02;;
11823;SDS011;5969;50.780;7.726;2024-03-06T00:57:35;21.65;;;18.60;;
11823;SDS011;5969;50.780;7.726;2024-03-06T01:00:02;28.58;;;19.05;;
11823;SDS011;5969;50.780;7.726;2024-03-06T01:02:35;30.02;;;19.27;;
11823;SDS011;5969;50.780;7.726;2024-03-06T01:05:04;22.77;;;18.17;;
11823;SDS011;5969;50.780;7.726;2024-03-06T01:07:32;27.30;;;19.23;;
11823;SDS011;5969;50.780;7.726;2024-03-06T01:09:59;21.50;;;18.52;;
11823;SDS011;5969;50.780;7.726;2024-03-06T01:12:27;21.90;;;19.42;;
11823;SDS011;5969;50.780;7.726;2024-03-06T01:14:55;22.23;;;19.25;;
11823;SDS011;5969;50.780;7.726;2024-03-06T01:17:23;20.75;;;17.80;;
11823;SDS011;5969;50.780;7.726;2024-03-06T01:19:50;20.27;;;18.08;;
11823;SDS011;5969;50.780;7.726;2024-03-06T01:22:18;20.65;;;18.45;;
11823;SDS011;5969;50.780;7.726;2024-03-06T01:24:45;20.42;;;18.27;;
11823;SDS011;5969;50.780;7.726;2024-03-06T01:27:14;19.23;;;17.20;;
11823;SDS011;5969;50.780;7.726;2024-03-06T01:29:41;23.83;;;19.27;;
11823;SDS011;5969;50.780;7.726;2024-03-06T01:32:08;32.83;;;20.42;;
11823;SDS011;5969;50.780;7.726;2024-03-06T01:34:35;24.25;;;19.15;;
11823;SDS011;5969;50.780;7.726;2024-03-06T01:37:02;23.88;;;19.40;;
11823;SDS011;5969;50.780;7.726;2024-03-06T01:39:31;22.10;;;19.25;;
11823;SDS011;5969;50.780;7.726;2024-03-06T01:41:58;25.52;;;18.55;;
11823;SDS011;5969;50.780;7.726;2024-03-06T01:44:25;22.85;;;18.75;;
11823;SDS011;5969;50.780;7.726;2024-03-06T01:46:52;19.25;;;16.90;;
11823;SDS011;5969;50.780;7.726;2024-03-06T01:49:19;24.70;;;19.08;;
11823;SDS011;5969;50.780;7.726;2024-03-06T01:51:48;23.13;;;18.27;;
11823;SDS011;5969;50.780;7.726;2024-03-06T01:54:15;20.92;;;18.25;;
11823;SDS011;5969;50.780;7.726;2024-03-06T01:56:44;22.73;;;18.77;;
11823;SDS011;5969;50.780;7.726;2024-03-06T01:59:12;20.63;;;17.48;;
11823;SDS011;5969;50.780;7.726;2024-03-06T02:01:40;20.25;;;18.10;;
11823;SDS011;5969;50.780;7.726;2024-03-06T02:04:07;35.75;;;18.73;;
11823;SDS011;5969;50.780;7.726;2024-03-06T02:06:35;21.98;;;18.52;;
11823;SDS011;5969;50.780;7.726;2024-03-06T02:09:02;22.75;;;18.92;;
11823;SDS011;5969;50.780;7.726;2024-03-06T02:11:30;21.70;;;19.15;;
11823;SDS011;5969;50.780;7.726;2024-03-06T02:13:58;24.65;;;17.23;;
11823;SDS011;5969;50.780;7.726;2024-03-06T02:16:25;23.45;;;19.60;;
11823;SDS011;5969;50.780;7.726;2024-03-06T02:18:52;34.15;;;18.40;;
11823;SDS011;5969;50.780;7.726;2024-03-06T02:21:21;32.28;;;17.98;;
11823;SDS011;5969;50.780;7.726;2024-03-06T02:23:48;48.22;;;19.67;;
11823;SDS011;5969;50.780;7.726;2024-03-06T02:26:16;56.13;;;20.13;;
11823;SDS011;5969;50.780;7.726;2024-03-06T02:28:46;28.42;;;17.75;;
11823;SDS011;5969;50.780;7.726;2024-03-06T02:31:14;82.55;;;20.10;;
11823;SDS011;5969;50.780;7.726;2024-03-06T02:33:42;25.10;;;19.15;;
11823;SDS011;5969;50.780;7.726;2024-03-06T02:36:09;22.67;;;18.92;;
11823;SDS011;5969;50.780;7.726;2024-03-06T02:38:37;25.00;;;19.10;;
11823;SDS011;5969;50.780;7.726;2024-03-06T02:41:05;37.63;;;19.73;;
11823;SDS011;5969;50.780;7.726;2024-03-06T02:43:32;23.35;;;18.30;;
11823;SDS011;5969;50.780;7.726;2024-03-06T02:45:59;34.40;;;20.38;;
11823;SDS011;5969;50.780;7.726;2024-03-06T02:48:26;23.67;;;16.63;;
11823;SDS011;5969;50.780;7.726;2024-03-06T02:50:54;20.15;;;16.30;;
11823;SDS011;5969;50.780;7.726;2024-03-06T02:53:21;35.55;;;17.77;;
11823;SDS011;5969;50.780;7.726;2024-03-06T02:55:49;19.23;;;16.10;;
11823;SDS011;5969;50.780;7.726;2024-03-06T02:58:16;21.27;;;17.35;;
11823;SDS011;5969;50.780;7.726;2024-03-06T03:00:44;47.55;;;18.25;;
11823;SDS011;5969;50.780;7.726;2024-03-06T03:03:11;19.80;;;15.75;;
11823;SDS011;5969;50.780;7.726;2024-03-06T03:05:38;19.73;;;16.92;;
11823;SDS011;5969;50.780;7.726;2024-03-06T03:08:05;26.60;;;18.13;;
11823;SDS011;5969;50.780;7.726;2024-03-06T03:10:33;20.92;;;18.50;;
11823;SDS011;5969;50.780;7.726;2024-03-06T03:13:02;21.73;;;18.80;;
11823;SDS011;5969;50.780;7.726;2024-03-06T03:15:29;20.95;;;17.80;;
11823;SDS011;5969;50.780;7.726;2024-03-06T03:17:57;21.15;;;18.02;;
11823;SDS011;5969;50.780;7.726;2024-03-06T03:20:24;20.50;;;18.20;;
11823;SDS011;5969;50.780;7.726;2024-03-06T03:22:52;19.98;;;17.00;;
11823;SDS011;5969;50.780;7.726;2024-03-06T03:25:19;21.40;;;16.70;;
11823;SDS011;5969;50.780;7.726;2024-03-06T03:27:47;20.38;;;18.17;;
11823;SDS011;5969;50.780;7.726;2024-03-06T03:30:17;18.27;;;16.10;;
11823;SDS011;5969;50.780;7.726;2024-03-06T03:32:46;24.83;;;17.95;;
11823;SDS011;5969;50.780;7.726;2024-03-06T03:35:13;19.88;;;17.77;;
11823;SDS011;5969;50.780;7.726;2024-03-06T03:37:42;29.13;;;17.35;;
11823;SDS011;5969;50.780;7.726;2024-03-06T03:40:09;18.80;;;16.73;;
11823;SDS011;5969;50.780;7.726;2024-03-06T03:42:37;19.25;;;16.77;;
11823;SDS011;5969;50.780;7.726;2024-03-06T03:45:04;20.35;;;16.60;;
11823;SDS011;5969;50.780;7.726;2024-03-06T03:47:33;18.30;;;16.40;;
11823;SDS011;5969;50.780;7.726;2024-03-06T03:49:59;18.17;;;16.30;;
11823;SDS011;5969;50.780;7.726;2024-03-06T03:52:26;19.35;;;17.35;;
11823;SDS011;5969;50.780;7.726;2024-03-06T03:54:53;19.73;;;17.73;;
11823;SDS011;5969;50.780;7.726;2024-03-06T03:57:20;24.33;;;17.50;;
11823;SDS011;5969;50.780;7.726;2024-03-06T03:59:47;18.45;;;16.50;;
11823;SDS011;5969;50.780;7.726;2024-03-06T04:02:14;19.02;;;16.98;;
11823;SDS011;5969;50.780;7.726;2024-03-06T04:04:42;18.02;;;16.13;;
11823;SDS011;5969;50.780;7.726;2024-03-06T04:07:09;19.90;;;17.75;;
11823;SDS011;5969;50.780;7.726;2024-03-06T04:09:36;18.33;;;16.38;;
11823;SDS011;5969;50.780;7.726;2024-03-06T04:12:04;19.45;;;17.35;;
11823;SDS011;5969;50.780;7.726;2024-03-06T04:14:31;20.48;;;17.42;;
11823;SDS011;5969;50.780;7.726;2024-03-06T04:16:58;18.10;;;16.30;;
11823;SDS011;5969;50.780;7.726;2024-03-06T04:19:25;17.90;;;16.02;;
11823;SDS011;5969;50.780;7.726;2024-03-06T04:21:53;19.63;;;17.52;;
11823;SDS011;5969;50.780;7.726;2024-03-06T04:24:20;17.60;;;15.70;;
11823;SDS011;5969;50.780;7.726;2024-03-06T04:26:47;17.33;;;15.63;;
11823;SDS011;5969;50.780;7.726;2024-03-06T04:29:15;16.30;;;14.60;;
11823;SDS011;5969;50.780;7.726;2024-03-06T04:31:42;21.15;;;16.38;;
11823;SDS011;5969;50.780;7.726;2024-03-06T04:34:09;17.55;;;15.82;;
11823;SDS011;5969;50.780;7.726;2024-03-06T04:36:36;16.95;;;15.25;;
11823;SDS011;5969;50.780;7.726;2024-03-06T04:39:05;20.73;;;16.77;;
11823;SDS011;5969;50.780;7.726;2024-03-06T04:41:32;18.13;;;16.23;;
11823;SDS011;5969;50.780;7.726;2024-03-06T04:43:59;23.80;;;17.25;;
11823;SDS011;5969;50.780;7.726;2024-03-06T04:46:26;19.33;;;16.42;;
11823;SDS011;5969;50.780;7.726;2024-03-06T04:48:53;18.67;;;16.58;;
11823;SDS011;5969;50.780;7.726;2024-03-06T04:51:20;17.55;;;15.68;;
11823;SDS011;5969;50.780;7.726;2024-03-06T04:53:47;78.43;;;18.70;;
11823;SDS011;5969;50.780;7.726;2024-03-06T04:56:16;17.17;;;15.38;;
11823;SDS011;5969;50.780;7.726;2024-03-06T04:58:44;18.77;;;16.77;;
11823;SDS011;5969;50.780;7.726;2024-03-06T05:01:11;19.83;;;16.92;;
11823;SDS011;5969;50.780;7.726;2024-03-06T05:03:38;19.13;;;17.00;;
11823;SDS011;5969;50.780;7.726;2024-03-06T05:06:05;19.65;;;17.05;;
11823;SDS011;5969;50.780;7.726;2024-03-06T05:08:32;19.58;;;16.30;;
11823;SDS011;5969;50.780;7.726;2024-03-06T05:11:00;17.00;;;15.20;;
11823;SDS011;5969;50.780;7.726;2024-03-06T05:13:28;18.15;;;15.95;;
11823;SDS011;5969;50.780;7.726;2024-03-06T05:15:55;19.80;;;15.63;;
11823;SDS011;5969;50.780;7.726;2024-03-06T05:18:22;20.20;;;15.43;;
11823;SDS011;5969;50.780;7.726;2024-03-06T05:20:49;18.60;;;15.65;;
11823;SDS011;5969;50.780;7.726;2024-03-06T05:23:17;18.42;;;15.88;;
11823;SDS011;5969;50.780;7.726;2024-03-06T05:25:44;17.88;;;15.48;;
11823;SDS011;5969;50.780;7.726;2024-03-06T05:28:11;17.75;;;15.85;;
11823;SDS011;5969;50.780;7.726;2024-03-06T05:30:39;17.92;;;14.98;;
11823;SDS011;5969;50.780;7.726;2024-03-06T05:33:06;16.42;;;14.55;;
11823;SDS011;5969;50.780;7.726;2024-03-06T05:35:33;17.35;;;15.40;;
11823;SDS011;5969;50.780;7.726;2024-03-06T05:38:00;18.55;;;16.55;;
11823;SDS011;5969;50.780;7.726;2024-03-06T05:40:28;22.33;;;16.40;;
11823;SDS011;5969;50.780;7.726;2024-03-06T05:42:56;19.27;;;16.17;;
11823;SDS011;5969;50.780;7.726;2024-03-06T05:45:23;19.20;;;14.63;;
11823;SDS011;5969;50.780;7.726;2024-03-06T05:47:51;18.95;;;15.90;;
11823;SDS011;5969;50.780;7.726;2024-03-06T05:50:19;47.15;;;17.80;;
11823;SDS011;5969;50.780;7.726;2024-03-06T05:52:46;20.50;;;17.20;;
11823;SDS011;5969;50.780;7.726;2024-03-06T05:55:13;17.33;;;15.48;;
11823;SDS011;5969;50.780;7.726;2024-03-06T05:57:40;32.00;;;16.95;;
11823;SDS011;5969;50.780;7.726;2024-03-06T06:00:10;17.52;;;15.63;;
11823;SDS011;5969;50.780;7.726;2024-03-06T06:02:38;16.77;;;14.95;;
11823;SDS011;5969;50.780;7.726;2024-03-06T06:05:07;24.20;;;18.02;;
11823;SDS011;5969;50.780;7.726;2024-03-06T06:07:34;25.65;;;18.83;;
11823;SDS011;5969;50.780;7.726;2024-03-06T06:10:03;49.92;;;20.30;;
11823;SDS011;5969;50.780;7.726;2024-03-06T06:12:31;31.13;;;18.33;;
11823;SDS011;5969;50.780;7.726;2024-03-06T06:14:58;31.80;;;18.20;;
11823;SDS011;5969;50.780;7.726;2024-03-06T06:17:25;25.27;;;16.70;;
11823;SDS011;5969;50.780;7.726;2024-03-06T06:19:52;20.35;;;17.00;;
11823;SDS011;5969;50.780;7.726;2024-03-06T06:22:20;17.70;;;15.90;;
11823;SDS011;5969;50.780;7.726;2024-03-06T06:24:47;36.75;;;18.10;;
11823;SDS011;5969;50.780;7.726;2024-03-06T06:27:15;48.85;;;19.02;;
11823;SDS011;5969;50.780;7.726;2024-03-06T06:29:42;22.27;;;17.02;;
11823;SDS011;5969;50.780;7.726;2024-03-06T06:32:09;24.98;;;19.15;;
11823;SDS011;5969;50.780;7.726;2024-03-06T06:34:36;25.15;;;18.42;;
11823;SDS011;5969;50.780;7.726;2024-03-06T06:37:03;29.50;;;19.80;;
11823;SDS011;5969;50.780;7.726;2024-03-06T06:39:32;63.45;;;21.25;;
11823;SDS011;5969;50.780;7.726;2024-03-06T06:41:59;46.45;;;19.70;;
11823;SDS011;5969;50.780;7.726;2024-03-06T06:44:28;31.40;;;18.77;;
11823;SDS011;5969;50.780;7.726;2024-03-06T06:46:55;23.20;;;17.10;;
11823;SDS011;5969;50.780;7.726;2024-03-06T06:49:22;19.48;;;15.30;;
11823;SDS011;5969;50.780;7.726;2024-03-06T06:51:49;24.85;;;18.48;;
11823;SDS011;5969;50.780;7.726;2024-03-06T06:54:16;21.83;;;17.38;;
11823;SDS011;5969;50.780;7.726;2024-03-06T06:56:45;20.95;;;16.88;;
11823;SDS011;5969;50.780;7.726;2024-03-06T06:59:12;20.38;;;15.68;;
11823;SDS011;5969;50.780;7.726;2024-03-06T07:01:39;25.38;;;17.48;;
11823;SDS011;5969;50.780;7.726;2024-03-06T07:04:06;18.50;;;15.35;;
11823;SDS011;5969;50.780;7.726;2024-03-06T07:06:33;19.60;;;15.50;;
11823;SDS011;5969;50.780;7.726;2024-03-06T07:09:00;34.67;;;16.92;;
11823;SDS011;5969;50.780;7.726;2024-03-06T07:11:29;24.38;;;17.33;;
11823;SDS011;5969;50.780;7.726;2024-03-06T07:13:58;23.30;;;17.15;;
11823;SDS011;5969;50.780;7.726;2024-03-06T07:16:25;23.98;;;17.02;;
11823;SDS011;5969;50.780;7.726;2024-03-06T07:18:52;24.13;;;17.35;;
11823;SDS011;5969;50.780;7.726;2024-03-06T07:21:19;24.60;;;17.10;;
11823;SDS011;5969;50.780;7.726;2024-03-06T07:23:46;23.88;;;16.95;;
11823;SDS011;5969;50.780;7.726;2024-03-06T07:26:13;24.88;;;17.38;;
11823;SDS011;5969;50.780;7.726;2024-03-06T07:28:40;25.83;;;16.95;;
11823;SDS011;5969;50.780;7.726;2024-03-06T07:31:09;30.15;;;18.40;;
11823;SDS011;5969;50.780;7.726;2024-03-06T07:33:36;26.83;;;17.75;;
11823;SDS011;5969;50.780;7.726;2024-03-06T07:36:03;27.75;;;18.83;;
11823;SDS011;5969;50.780;7.726;2024-03-06T07:38:31;29.88;;;19.63;;
11823;SDS011;5969;50.780;7.726;2024-03-06T07:40:58;26.65;;;18.00;;
11823;SDS011;5969;50.780;7.726;2024-03-06T07:43:25;25.60;;;17.58;;
11823;SDS011;5969;50.780;7.726;2024-03-06T07:45:52;26.27;;;17.55;;
11823;SDS011;5969;50.780;7.726;2024-03-06T07:48:21;25.02;;;18.27;;
11823;SDS011;5969;50.780;7.726;2024-03-06T07:50:48;27.55;;;17.98;;
11823;SDS011;5969;50.780;7.726;2024-03-06T07:53:15;27.35;;;18.00;;
11823;SDS011;5969;50.780;7.726;2024-03-06T07:55:43;28.77;;;18.98;;
11823;SDS011;5969;50.780;7.726;2024-03-06T07:58:10;28.08;;;16.90;;
11823;SDS011;5969;50.780;7.726;2024-03-06T08:00:37;26.98;;;18.85;;
11823;SDS011;5969;50.780;7.726;2024-03-06T08:03:04;27.88;;;18.52;;
11823;SDS011;5969;50.780;7.726;2024-03-06T08:05:33;25.52;;;17.92;;
11823;SDS011;5969;50.780;7.726;2024-03-06T08:08:00;24.27;;;17.55;;
11823;SDS011;5969;50.780;7.726;2024-03-06T08:10:28;26.20;;;17.83;;
11823;SDS011;5969;50.780;7.726;2024-03-06T08:12:56;25.83;;;18.35;;
11823;SDS011;5969;50.780;7.726;2024-03-06T08:15:23;28.55;;;18.98;;
11823;SDS011;5969;50.780;7.726;2024-03-06T08:17:50;27.33;;;18.02;;
11823;SDS011;5969;50.780;7.726;2024-03-06T08:20:18;26.73;;;17.90;;
11823;SDS011;5969;50.780;7.726;2024-03-06T08:22:46;26.15;;;17.45;;
11823;SDS011;5969;50.780;7.726;2024-03-06T08:25:13;27.33;;;19.35;;
11823;SDS011;5969;50.780;7.726;2024-03-06T08:27:40;25.52;;;18.05;;
11823;SDS011;5969;50.780;7.726;2024-03-06T08:30:08;25.08;;;18.25;;
11823;SDS011;5969;50.780;7.726;2024-03-06T08:32:35;22.02;;;16.80;;
11823;SDS011;5969;50.780;7.726;2024-03-06T08:35:03;25.23;;;17.73;;
11823;SDS011;5969;50.780;7.726;2024-03-06T08:37:31;27.45;;;18.27;;
11823;SDS011;5969;50.780;7.726;2024-03-06T08:40:00;25.67;;;18.63;;
11823;SDS011;5969;50.780;7.726;2024-03-06T08:42:28;28.77;;;18.90;;
11823;SDS011;5969;50.780;7.726;2024-03-06T08:44:55;25.10;;;18.15;;
11823;SDS011;5969;50.780;7.726;2024-03-06T08:47:22;27.00;;;19.92;;
11823;SDS011;5969;50.780;7.726;2024-03-06T08:49:50;25.13;;;18.63;;
11823;SDS011;5969;50.780;7.726;2024-03-06T08:52:24;25.95;;;18.92;;
11823;SDS011;5969;50.780;7.726;2024-03-06T08:54:51;25.27;;;19.40;;
11823;SDS011;5969;50.780;7.726;2024-03-06T08:57:19;26.55;;;19.15;;
11823;SDS011;5969;50.780;7.726;2024-03-06T08:59:47;28.45;;;19.95;;
11823;SDS011;5969;50.780;7.726;2024-03-06T09:02:14;25.10;;;18.92;;
11823;SDS011;5969;50.780;7.726;2024-03-06T09:04:42;25.80;;;19.48;;
11823;SDS011;5969;50.780;7.726;2024-03-06T09:07:10;23.55;;;18.05;;
11823;SDS011;5969;50.780;7.726;2024-03-06T09:09:37;24.38;;;19.33;;
11823;SDS011;5969;50.780;7.726;2024-03-06T09:12:04;27.30;;;20.17;;
11823;SDS011;5969;50.780;7.726;2024-03-06T09:14:33;27.33;;;19.23;;
11823;SDS011;5969;50.780;7.726;2024-03-06T09:20:02;27.73;;;20.75;;
11823;SDS011;5969;50.780;7.726;2024-03-06T09:22:35;26.48;;;19.70;;
11823;SDS011;5969;50.780;7.726;2024-03-06T09:25:02;26.00;;;19.38;;
11823;SDS011;5969;50.780;7.726;2024-03-06T09:27:29;24.42;;;18.52;;
11823;SDS011;5969;50.780;7.726;2024-03-06T09:29:58;24.90;;;20.00;;
11823;SDS011;5969;50.780;7.726;2024-03-06T09:32:25;23.65;;;18.92;;
11823;SDS011;5969;50.780;7.726;2024-03-06T09:34:52;25.95;;;19.30;;
11823;SDS011;5969;50.780;7.726;2024-03-06T09:37:19;26.98;;;19.60;;
11823;SDS011;5969;50.780;7.726;2024-03-06T09:39:46;23.42;;;18.88;;
11823;SDS011;5969;50.780;7.726;2024-03-06T09:42:13;22.70;;;17.90;;
11823;SDS011;5969;50.780;7.726;2024-03-06T09:44:41;24.77;;;18.80;;
11823;SDS011;5969;50.780;7.726;2024-03-06T09:47:10;24.15;;;18.65;;
11823;SDS011;5969;50.780;7.726;2024-03-06T09:49:39;24.23;;;19.35;;
11823;SDS011;5969;50.780;7.726;2024-03-06T09:52:08;22.50;;;17.33;;
11823;SDS011;5969;50.780;7.726;2024-03-06T09:54:36;22.23;;;17.83;;
11823;SDS011;5969;50.780;7.726;2024-03-06T09:57:04;23.65;;;18.55;;
11823;SDS011;5969;50.780;7.726;2024-03-06T09:59:31;24.65;;;18.48;;
11823;SDS011;5969;50.780;7.726;2024-03-06T10:02:00;25.88;;;19.33;;
11823;SDS011;5969;50.780;7.726;2024-03-06T10:04:32;24.65;;;19.23;;
11823;SDS011;5969;50.780;7.726;2024-03-06T10:07:02;25.98;;;19.30;;
11823;SDS011;5969;50.780;7.726;2024-03-06T10:09:30;22.25;;;17.67;;
11823;SDS011;5969;50.780;7.726;2024-03-06T10:11:58;23.70;;;17.77;;
11823;SDS011;5969;50.780;7.726;2024-03-06T10:14:25;21.85;;;17.02;;
11823;SDS011;5969;50.780;7.726;2024-03-06T10:16:54;23.70;;;18.13;;
11823;SDS011;5969;50.780;7.726;2024-03-06T10:19:23;24.52;;;18.33;;
11823;SDS011;5969;50.780;7.726;2024-03-06T10:21:53;22.77;;;17.20;;
11823;SDS011;5969;50.780;7.726;2024-03-06T10:24:23;20.60;;;15.63;;
11823;SDS011;5969;50.780;7.726;2024-03-06T10:26:50;21.15;;;16.90;;
11823;SDS011;5969;50.780;7.726;2024-03-06T10:29:19;21.77;;;16.20;;
11823;SDS011;5969;50.780;7.726;2024-03-06T10:31:50;22.50;;;17.60;;
11823;SDS011;5969;50.780;7.726;2024-03-06T10:34:17;21.65;;;16.02;;
11823;SDS011;5969;50.780;7.726;2024-03-06T10:36:46;22.40;;;17.60;;
11823;SDS011;5969;50.780;7.726;2024-03-06T10:39:17;23.02;;;16.25;;
11823;SDS011;5969;50.780;7.726;2024-03-06T10:41:46;21.10;;;16.05;;
11823;SDS011;5969;50.780;7.726;2024-03-06T10:44:17;22.15;;;16.33;;
11823;SDS011;5969;50.780;7.726;2024-03-06T10:46:47;21.05;;;16.33;;
11823;SDS011;5969;50.780;7.726;2024-03-06T10:49:18;21.67;;;17.15;;
11823;SDS011;5969;50.780;7.726;2024-03-06T10:51:46;19.80;;;15.55;;
11823;SDS011;5969;50.780;7.726;2024-03-06T10:54:13;23.77;;;17.98;;
11823;SDS011;5969;50.780;7.726;2024-03-06T10:56:41;22.85;;;16.77;;
11823;SDS011;5969;50.780;7.726;2024-03-06T10:59:10;22.40;;;16.42;;
11823;SDS011;5969;50.780;7.726;2024-03-06T11:01:39;21.55;;;16.75;;
11823;SDS011;5969;50.780;7.726;2024-03-06T11:04:08;22.08;;;16.38;;
11823;SDS011;5969;50.780;7.726;2024-03-06T11:06:37;19.33;;;15.40;;
11823;SDS011;5969;50.780;7.726;2024-03-06T11:09:05;20.35;;;15.27;;
11823;SDS011;5969;50.780;7.726;2024-03-06T11:11:32;19.83;;;16.15;;
11823;SDS011;5969;50.780;7.726;2024-03-06T11:14:03;20.23;;;15.25;;
11823;SDS011;5969;50.780;7.726;2024-03-06T11:16:31;20.02;;;16.00;;
11823;SDS011;5969;50.780;7.726;2024-03-06T11:19:05;20.02;;;14.85;;
11823;SDS011;5969;50.780;7.726;2024-03-06T11:21:33;18.67;;;14.35;;
11823;SDS011;5969;50.780;7.726;2024-03-06T11:24:13;21.85;;;15.32;;
11823;SDS011;5969;50.780;7.726;2024-03-06T11:26:41;18.90;;;14.07;;
11823;SDS011;5969;50.780;7.726;2024-03-06T11:29:10;20.23;;;15.60;;
11823;SDS011;5969;50.780;7.726;2024-03-06T11:31:37;18.77;;;13.43;;
11823;SDS011;5969;50.780;7.726;2024-03-06T11:34:04;17.40;;;13.77;;
11823;SDS011;5969;50.780;7.726;2024-03-06T11:36:33;17.60;;;13.90;;
11823;SDS011;5969;50.780;7.726;2024-03-06T11:39:03;15.68;;;13.48;;
11823;SDS011;5969;50.780;7.726;2024-03-06T11:41:32;18.20;;;13.32;;
11823;SDS011;5969;50.780;7.726;2024-03-06T11:44:00;14.60;;;11.93;;
11823;SDS011;5969;50.780;7.726;2024-03-06T11:46:42;16.38;;;12.05;;
11823;SDS011;5969;50.780;7.726;2024-03-06T11:49:14;16.17;;;13.63;;
11823;SDS011;5969;50.780;7.726;2024-03-06T11:51:41;14.27;;;11.73;;
11823;SDS011;5969;50.780;7.726;2024-03-06T11:54:08;17.08;;;14.13;;
11823;SDS011;5969;50.780;7.726;2024-03-06T11:56:36;16.75;;;13.57;;
11823;SDS011;5969;50.780;7.726;2024-03-06T11:59:05;15.93;;;12.80;;
11823;SDS011;5969;50.780;7.726;2024-03-06T12:01:32;15.95;;;13.15;;
11823;SDS011;5969;50.780;7.726;2024-03-06T12:04:03;14.43;;;12.75;;
11823;SDS011;5969;50.780;7.726;2024-03-06T12:06:31;17.23;;;13.30;;
11823;SDS011;5969;50.780;7.726;2024-03-06T12:08:58;14.75;;;12.90;;
11823;SDS011;5969;50.780;7.726;2024-03-06T12:11:26;15.15;;;12.75;;
11823;SDS011;5969;50.780;7.726;2024-03-06T12:13:53;15.95;;;13.30;;
11823;SDS011;5969;50.780;7.726;2024-03-06T12:16:20;15.90;;;13.00;;
11823;SDS011;5969;50.780;7.726;2024-03-06T12:18:53;15.77;;;13.32;;
11823;SDS011;5969;50.780;7.726;2024-03-06T12:21:24;12.50;;;11.10;;
11823;SDS011;5969;50.780;7.726;2024-03-06T12:24:01;14.85;;;12.75;;
11823;SDS011;5969;50.780;7.726;2024-03-06T12:26:29;13.40;;;10.10;;
11823;SDS011;5969;50.780;7.726;2024-03-06T12:29:03;16.33;;;11.45;;
11823;SDS011;5969;50.780;7.726;2024-03-06T12:31:31;16.10;;;11.85;;
11823;SDS011;5969;50.780;7.726;2024-03-06T12:33:58;13.10;;;10.85;;
11823;SDS011;5969;50.780;7.726;2024-03-06T12:36:30;11.95;;;9.75;;
11823;SDS011;5969;50.780;7.726;2024-03-06T12:38:58;11.05;;;9.40;;
11823;SDS011;5969;50.780;7.726;2024-03-06T12:41:26;11.68;;;10.27;;
11823;SDS011;5969;50.780;7.726;2024-03-06T12:43:53;12.25;;;10.57;;
11823;SDS011;5969;50.780;7.726;2024-03-06T12:46:21;12.38;;;9.88;;
11823;SDS011;5969;50.780;7.726;2024-03-06T12:48:48;10.65;;;9.35;;
11823;SDS011;5969;50.780;7.726;2024-03-06T12:51:16;12.38;;;9.32;;
11823;SDS011;5969;50.780;7.726;2024-03-06T12:53:44;12.77;;;10.25;;
11823;SDS011;5969;50.780;7.726;2024-03-06T12:56:13;12.52;;;10.00;;
11823;SDS011;5969;50.780;7.726;2024-03-06T12:58:40;12.68;;;9.88;;
11823;SDS011;5969;50.780;7.726;2024-03-06T13:01:07;14.48;;;9.57;;
11823;SDS011;5969;50.780;7.726;2024-03-06T13:03:35;10.35;;;9.20;;
11823;SDS011;5969;50.780;7.726;2024-03-06T13:06:03;11.02;;;9.30;;
11823;SDS011;5969;50.780;7.726;2024-03-06T13:08:30;11.07;;;9.10;;
11823;SDS011;5969;50.780;7.726;2024-03-06T13:10:59;9.10;;;8.20;;
11823;SDS011;5969;50.780;7.726;2024-03-06T13:13:26;10.95;;;8.43;;
11823;SDS011;5969;50.780;7.726;2024-03-06T13:15:55;10.13;;;7.70;;
11823;SDS011;5969;50.780;7.726;2024-03-06T13:18:23;7.72;;;5.70;;
11823;SDS011;5969;50.780;7.726;2024-03-06T13:20:50;5.60;;;4.75;;
11823;SDS011;5969;50.780;7.726;2024-03-06T13:23:17;5.28;;;4.20;;
11823;SDS011;5969;50.780;7.726;2024-03-06T13:25:45;8.35;;;6.18;;
11823;SDS011;5969;50.780;7.726;2024-03-06T13:28:13;8.50;;;5.43;;
11823;SDS011;5969;50.780;7.726;2024-03-06T13:30:40;9.88;;;7.05;;
11823;SDS011;5969;50.780;7.726;2024-03-06T13:33:07;9.45;;;6.80;;
11823;SDS011;5969;50.780;7.726;2024-03-06T13:35:34;8.05;;;7.05;;
11823;SDS011;5969;50.780;7.726;2024-03-06T13:38:01;7.18;;;6.25;;
11823;SDS011;5969;50.780;7.726;2024-03-06T13:40:29;8.82;;;5.75;;
11823;SDS011;5969;50.780;7.726;2024-03-06T13:42:56;7.53;;;6.35;;
11823;SDS011;5969;50.780;7.726;2024-03-06T13:45:26;6.47;;;5.88;;
11823;SDS011;5969;50.780;7.726;2024-03-06T13:47:53;6.97;;;6.28;;
11823;SDS011;5969;50.780;7.726;2024-03-06T13:50:20;7.32;;;6.03;;
11823;SDS011;5969;50.780;7.726;2024-03-06T13:52:50;6.97;;;6.25;;
11823;SDS011;5969;50.780;7.726;2024-03-06T13:55:17;6.25;;;5.55;;
11823;SDS011;5969;50.780;7.726;2024-03-06T13:57:44;6.57;;;5.88;;
11823;SDS011;5969;50.780;7.726;2024-03-06T14:00:12;7.93;;;6.60;;
11823;SDS011;5969;50.780;7.726;2024-03-06T14:02:43;8.30;;;6.25;;
11823;SDS011;5969;50.780;7.726;2024-03-06T14:05:12;8.57;;;6.57;;
11823;SDS011;5969;50.780;7.726;2024-03-06T14:07:39;7.63;;;5.60;;
11823;SDS011;5969;50.780;7.726;2024-03-06T14:10:06;6.78;;;6.03;;
11823;SDS011;5969;50.780;7.726;2024-03-06T14:12:35;6.35;;;5.70;;
11823;SDS011;5969;50.780;7.726;2024-03-06T14:15:02;8.45;;;6.25;;
11823;SDS011;5969;50.780;7.726;2024-03-06T14:17:30;7.65;;;6.47;;
11823;SDS011;5969;50.780;7.726;2024-03-06T14:19:58;7.30;;;5.65;;
11823;SDS011;5969;50.780;7.726;2024-03-06T14:22:25;7.28;;;5.93;;
11823;SDS011;5969;50.780;7.726;2024-03-06T14:24:52;7.80;;;5.93;;
11823;SDS011;5969;50.780;7.726;2024-03-06T14:27:20;7.40;;;5.50;;
11823;SDS011;5969;50.780;7.726;2024-03-06T14:29:47;5.90;;;5.30;;
11823;SDS011;5969;50.780;7.726;2024-03-06T14:32:14;7.10;;;4.90;;
11823;SDS011;5969;50.780;7.726;2024-03-06T14:34:41;5.32;;;4.65;;
11823;SDS011;5969;50.780;7.726;2024-03-06T14:37:10;7.88;;;5.97;;
11823;SDS011;5969;50.780;7.726;2024-03-06T14:39:37;6.20;;;5.32;;
11823;SDS011;5969;50.780;7.726;2024-03-06T14:42:05;6.00;;;5.30;;
11823;SDS011;5969;50.780;7.726;2024-03-06T14:44:32;6.18;;;5.57;;